Time;durP1;ratioP1;P1;durP2;ratioP2;P2;SDS_P1;SDS_P2;PMS_P1;PMS_P2;Temp;Humidity;BMP_temperature;BMP_pressure;BME280_temperature;BME280_humidity;BME280_pressure;Samples;Min_cycle;Max_cycle;Signal;HPM_P1;HPM_P2
2022/04/17 00:00:26;;;;;;;5.80;3.80;;;13.60;48.20;;;;;;5089248;28;20755;-66
2022/04/17 00:02:53;;;;;;;4.93;3.87;;;13.60;48.30;;;;;;5087510;28;20409;-65
2022/04/17 00:05:19;;;;;;;7.13;4.05;;;13.60;48.20;;;;;;5097911;28;20969;-66
2022/04/17 00:07:45;;;;;;;6.83;4.27;;;13.50;48.40;;;;;;5090005;28;20410;-66
2022/04/17 00:10:11;;;;;;;6.55;4.00;;;13.50;48.50;;;;;;5089175;28;20440;-67
2022/04/17 00:12:41;;;;;;;6.03;3.83;;;13.50;48.70;;;;;;5066686;28;20998;-66
2022/04/17 00:15:09;;;;;;;7.72;4.40;;;13.40;49.00;;;;;;5089310;28;20436;-66
2022/04/17 00:17:38;;;;;;;6.32;3.92;;;13.40;48.90;;;;;;5086757;28;20464;-65
2022/04/17 00:20:05;;;;;;;6.77;4.33;;;13.30;49.10;;;;;;5071695;28;20402;-66
2022/04/17 00:22:31;;;;;;;7.10;4.30;;;13.30;49.20;;;;;;5088484;28;20544;-66
2022/04/17 00:24:59;;;;;;;6.87;4.30;;;13.30;49.30;;;;;;5103425;28;20511;-65
2022/04/17 00:27:24;;;;;;;11.63;4.20;;;13.20;49.50;;;;;;5068116;28;20522;-65
2022/04/17 00:29:50;;;;;;;9.05;4.40;;;13.20;49.70;;;;;;5089356;28;20436;-65
2022/04/17 00:32:16;;;;;;;6.47;4.53;;;13.20;49.60;;;;;;5087053;28;20471;-65
2022/04/17 00:34:44;;;;;;;9.20;4.40;;;13.10;50.00;;;;;;5067703;28;20422;-65
2022/04/17 00:37:10;;;;;;;6.72;4.35;;;13.10;50.00;;;;;;5087883;28;20495;-65
2022/04/17 00:39:36;;;;;;;6.88;4.43;;;13.10;50.10;;;;;;5068511;28;20410;-65
2022/04/17 00:42:05;;;;;;;8.38;4.63;;;13.00;50.20;;;;;;5070620;28;20398;-66
2022/04/17 00:44:31;;;;;;;7.50;4.50;;;13.00;50.50;;;;;;5070088;28;20427;-66
2022/04/17 00:46:57;;;;;;;7.18;4.45;;;13.00;50.50;;;;;;5086996;28;20444;-66
2022/04/17 00:49:23;;;;;;;6.72;4.65;;;12.90;50.60;;;;;;5087087;28;20429;-66
2022/04/17 00:51:49;;;;;;;10.03;4.80;;;12.80;50.70;;;;;;5089446;28;20402;-64
2022/04/17 00:54:17;;;;;;;6.85;4.35;;;12.80;51.00;;;;;;5087716;28;20453;-66
2022/04/17 00:56:44;;;;;;;6.82;4.65;;;12.80;51.10;;;;;;5070254;28;20961;-65
2022/04/17 00:59:09;;;;;;;6.82;5.03;;;12.70;51.30;;;;;;5086233;28;20417;-67
2022/04/17 01:01:37;;;;;;;6.83;4.90;;;12.70;51.50;;;;;;5086229;28;20402;-67
2022/04/17 01:04:05;;;;;;;7.00;4.95;;;12.60;52.20;;;;;;5072831;28;20443;-66
2022/04/17 01:06:31;;;;;;;7.93;4.97;;;12.60;51.50;;;;;;5091113;28;20792;-66
2022/04/17 01:08:58;;;;;;;7.15;4.88;;;12.50;51.60;;;;;;5085689;28;20410;-66
2022/04/17 01:11:24;;;;;;;7.35;4.70;;;12.50;51.70;;;;;;5086208;28;20419;-66
2022/04/17 01:13:52;;;;;;;8.87;5.13;;;12.40;51.80;;;;;;5068268;28;20406;-66
2022/04/17 01:16:19;;;;;;;7.63;5.15;;;12.40;51.70;;;;;;5099295;28;20494;-65
2022/04/17 01:19:04;;;;;;;6.80;5.03;;;12.40;51.90;;;;;;5068022;28;20449;-64
2022/04/17 01:21:31;;;;;;;7.70;5.20;;;12.40;52.00;;;;;;5086789;28;20861;-65
2022/04/17 01:26:58;;;;;;;6.72;5.10;;;12.20;52.30;;;;;;5087717;28;20397;-66
2022/04/17 01:29:26;;;;;;;6.65;4.90;;;12.20;52.50;;;;;;5087434;28;20404;-66
2022/04/17 01:31:53;;;;;;;7.70;5.13;;;12.20;52.60;;;;;;5087071;28;20438;-66
2022/04/17 01:34:21;;;;;;;11.10;5.40;;;12.10;52.80;;;;;;5068887;28;20510;-65
2022/04/17 01:36:49;;;;;;;8.32;5.22;;;12.10;52.70;;;;;;5087282;28;20444;-65
2022/04/17 01:39:14;;;;;;;7.30;5.20;;;12.10;52.90;;;;;;5093159;28;20831;-65
2022/04/17 01:41:41;;;;;;;7.80;5.60;;;12.10;53.00;;;;;;5069998;28;20432;-65
2022/04/17 01:44:07;;;;;;;8.73;5.82;;;12.00;53.20;;;;;;5065781;28;20516;-66
2022/04/17 01:46:33;;;;;;;7.90;5.55;;;12.00;53.30;;;;;;5070021;28;20746;-65
2022/04/17 01:48:59;;;;;;;8.18;5.47;;;11.90;53.40;;;;;;5085734;28;20448;-65
2022/04/17 01:51:25;;;;;;;7.78;5.40;;;11.90;53.60;;;;;;5087924;28;20421;-66
2022/04/17 01:53:51;;;;;;;7.03;5.40;;;11.80;53.70;;;;;;5101764;28;20517;-66
2022/04/17 01:56:16;;;;;;;8.18;5.82;;;11.80;53.90;;;;;;5087234;28;20414;-65
2022/04/17 01:58:42;;;;;;;8.57;5.60;;;11.80;54.20;;;;;;5099506;28;20421;-66
2022/04/17 02:01:07;;;;;;;8.43;5.90;;;11.80;54.20;;;;;;5066173;28;20413;-66
2022/04/17 02:03:36;;;;;;;8.93;6.03;;;11.80;54.30;;;;;;5066710;28;20767;-66
2022/04/17 02:06:02;;;;;;;8.80;5.85;;;11.70;54.30;;;;;;5091453;28;20426;-66
2022/04/17 02:08:28;;;;;;;9.10;5.70;;;11.70;54.60;;;;;;5072726;28;20413;-66
2022/04/17 02:10:55;;;;;;;10.88;5.90;;;11.70;54.80;;;;;;5103043;28;20485;-66
2022/04/17 02:13:23;;;;;;;10.13;6.03;;;11.60;54.70;;;;;;5091833;28;20414;-66
2022/04/17 02:15:53;;;;;;;8.43;5.78;;;11.60;54.90;;;;;;5085362;28;20901;-66
2022/04/17 02:18:22;;;;;;;9.00;6.25;;;11.60;54.90;;;;;;5085317;28;20429;-66
2022/04/17 02:20:48;;;;;;;7.30;5.50;;;11.50;55.10;;;;;;5086094;28;20901;-65
2022/04/17 02:23:15;;;;;;;9.20;6.03;;;11.50;55.20;;;;;;5068247;28;20967;-66
2022/04/17 02:25:40;;;;;;;10.10;6.05;;;11.50;55.40;;;;;;5085901;28;20842;-66
2022/04/17 02:28:07;;;;;;;9.13;6.33;;;11.50;55.50;;;;;;5072379;28;20402;-66
2022/04/17 02:30:33;;;;;;;9.02;6.53;;;11.50;55.70;;;;;;5084434;28;20413;-67
2022/04/17 02:32:59;;;;;;;10.80;6.63;;;11.40;55.90;;;;;;5067270;28;20757;-67
2022/04/17 02:35:24;;;;;;;9.07;6.40;;;11.40;56.20;;;;;;5086446;28;20435;-66
2022/04/17 02:37:50;;;;;;;9.40;6.33;;;11.40;56.10;;;;;;5085745;28;20417;-67
2022/04/17 02:40:16;;;;;;;11.38;6.32;;;11.30;56.20;;;;;;5102023;28;20406;-67
2022/04/17 02:42:42;;;;;;;10.23;6.33;;;11.30;56.30;;;;;;5067241;28;20555;-67
2022/04/17 02:45:09;;;;;;;9.60;6.65;;;11.30;56.30;;;;;;5086080;28;20406;-67
2022/04/17 02:47:43;;;;;;;8.82;6.70;;;11.30;56.20;;;;;;5085236;28;20417;-67
2022/04/17 02:50:13;;;;;;;9.55;6.68;;;11.20;56.30;;;;;;5086699;28;20406;-67
2022/04/17 02:52:39;;;;;;;10.30;6.35;;;11.20;56.40;;;;;;5068826;28;20402;-66
2022/04/17 02:55:05;;;;;;;11.47;6.70;;;11.20;56.30;;;;;;5083520;28;20474;-66
2022/04/17 02:57:31;;;;;;;9.07;6.30;;;11.10;56.20;;;;;;5083398;28;20409;-67
2022/04/17 02:59:57;;;;;;;9.32;6.55;;;11.10;56.40;;;;;;5070998;28;20470;-67
2022/04/17 03:07:52;;;;;;;10.98;6.88;;;11.00;56.10;;;;;;5090212;28;20477;-66
2022/04/17 03:10:18;;;;;;;10.20;6.55;;;11.00;56.10;;;;;;5085160;28;20570;-66
2022/04/17 03:12:44;;;;;;;10.02;6.53;;;10.90;56.20;;;;;;5101808;28;20464;-66
2022/04/17 03:15:10;;;;;;;9.87;7.03;;;10.90;56.20;;;;;;5089937;28;20500;-66
2022/04/17 03:17:37;;;;;;;9.75;6.47;;;10.90;56.30;;;;;;5090664;28;20412;-66
2022/04/17 03:20:04;;;;;;;9.60;6.88;;;10.90;56.50;;;;;;5066735;28;20446;-65
2022/04/17 03:22:30;;;;;;;12.13;7.57;;;10.90;56.80;;;;;;5086441;28;20445;-66
2022/04/17 03:24:56;;;;;;;9.52;6.70;;;10.80;57.00;;;;;;5068338;28;20445;-65
2022/04/17 03:27:22;;;;;;;11.50;7.20;;;10.80;57.20;;;;;;5066333;28;20804;-65
2022/04/17 03:29:48;;;;;;;9.38;6.93;;;10.80;57.40;;;;;;5070469;28;20413;-64
2022/04/17 03:32:14;;;;;;;13.25;7.50;;;10.70;57.50;;;;;;5088644;28;20498;-65
2022/04/17 03:34:39;;;;;;;10.13;7.28;;;10.60;57.70;;;;;;5092087;28;20870;-65
2022/04/17 03:37:05;;;;;;;10.03;7.50;;;10.60;57.80;;;;;;5070745;28;20421;-65
2022/04/17 03:39:33;;;;;;;11.90;7.93;;;10.60;58.00;;;;;;5084085;28;20813;-66
2022/04/17 03:41:59;;;;;;;10.98;7.68;;;10.50;58.10;;;;;;5092574;28;20417;-65
2022/04/17 03:44:25;;;;;;;14.05;7.82;;;10.50;58.40;;;;;;5087959;28;20786;-65
2022/04/17 03:46:51;;;;;;;10.75;7.93;;;10.40;58.40;;;;;;5091912;28;20481;-65
2022/04/17 03:49:17;;;;;;;10.02;7.53;;;10.40;58.70;;;;;;5076400;28;20409;-65
2022/04/17 03:51:43;;;;;;;11.90;8.18;;;10.40;58.80;;;;;;5087804;28;20406;-66
2022/04/17 03:54:08;;;;;;;11.10;8.10;;;10.30;58.90;;;;;;5094104;28;20404;-67
2022/04/17 03:56:34;;;;;;;11.77;7.43;;;10.30;58.80;;;;;;5073756;28;20405;-66
2022/04/17 03:59:01;;;;;;;13.50;8.10;;;10.30;58.70;;;;;;5086124;28;20421;-65
2022/04/17 04:01:27;;;;;;;11.50;8.00;;;10.30;58.70;;;;;;5088018;28;20418;-66
2022/04/17 04:03:56;;;;;;;12.13;8.15;;;10.20;58.80;;;;;;5086544;28;20406;-65
2022/04/17 04:06:22;;;;;;;10.52;7.82;;;10.20;58.70;;;;;;5087164;28;20410;-66
2022/04/17 04:08:49;;;;;;;10.95;7.60;;;10.20;58.80;;;;;;5089107;28;20414;-66
2022/04/17 04:11:15;;;;;;;11.90;8.20;;;10.20;58.90;;;;;;5100320;28;20436;-66
2022/04/17 04:13:43;;;;;;;11.68;7.93;;;10.20;58.80;;;;;;5088203;28;20406;-66
2022/04/17 04:16:09;;;;;;;14.07;7.90;;;10.10;58.90;;;;;;5089638;28;20912;-67
2022/04/17 04:18:35;;;;;;;12.00;8.40;;;10.10;59.50;;;;;;5089738;28;20402;-65
2022/04/17 04:21:01;;;;;;;12.83;8.00;;;10.10;59.10;;;;;;5089763;28;20401;-65
2022/04/17 04:23:31;;;;;;;12.73;8.18;;;10.10;59.10;;;;;;5108354;27;20429;-65
2022/04/17 04:25:57;;;;;;;13.02;8.48;;;10.10;59.30;;;;;;5085614;28;20397;-64
2022/04/17 04:28:37;;;;;;;13.23;8.60;;;10.10;59.30;;;;;;5077022;28;20409;-64
2022/04/17 04:31:11;;;;;;;10.90;8.50;;;10.10;59.40;;;;;;5071829;28;20913;-65
2022/04/17 04:33:39;;;;;;;11.57;8.40;;;10.00;59.40;;;;;;5087666;28;20447;-65
2022/04/17 04:36:06;;;;;;;11.57;8.10;;;10.00;59.30;;;;;;5071802;28;20420;-66
2022/04/17 04:38:33;;;;;;;12.73;9.07;;;10.00;59.50;;;;;;5085131;28;20451;-64
2022/04/17 04:40:59;;;;;;;11.70;8.80;;;10.00;59.70;;;;;;5086019;28;20901;-65
2022/04/17 04:43:26;;;;;;;12.27;8.80;;;10.00;59.80;;;;;;5086889;28;20907;-65
2022/04/17 04:46:06;;;;;;;12.43;8.65;;;10.00;59.80;;;;;;5090149;28;20908;-65
2022/04/17 04:51:28;;;;;;;11.77;8.80;;;9.90;60.30;;;;;;5098973;28;20394;-65
2022/04/17 04:53:55;;;;;;;14.55;9.15;;;9.90;60.50;;;;;;5087234;28;20437;-65
2022/04/17 04:56:21;;;;;;;13.40;8.65;;;9.80;60.50;;;;;;5089031;28;20428;-65
2022/04/17 04:58:47;;;;;;;18.77;8.97;;;9.80;60.70;;;;;;5087260;28;20417;-65
2022/04/17 05:01:13;;;;;;;13.85;9.05;;;9.80;60.90;;;;;;5086896;28;20504;-66
2022/04/17 05:03:39;;;;;;;13.85;8.98;;;9.80;61.00;;;;;;5084678;28;20433;-66
2022/04/17 05:06:06;;;;;;;15.50;9.23;;;9.70;61.00;;;;;;5088769;28;20402;-66
2022/04/17 05:08:31;;;;;;;14.13;8.97;;;9.70;61.20;;;;;;5069081;28;20428;-66
2022/04/17 05:10:57;;;;;;;13.13;9.40;;;9.70;61.50;;;;;;5054619;28;20414;-69
2022/04/17 05:13:23;;;;;;;14.45;9.40;;;9.70;61.60;;;;;;5085381;28;20803;-65
2022/04/17 05:15:49;;;;;;;14.07;9.40;;;9.70;61.70;;;;;;5088913;28;20420;-67
2022/04/17 05:18:14;;;;;;;14.30;9.53;;;9.70;61.80;;;;;;5086204;28;20426;-67
2022/04/17 05:20:40;;;;;;;12.65;9.05;;;9.70;61.80;;;;;;5070088;28;20405;-67
2022/04/17 05:23:26;;;;;;;15.67;9.70;;;9.70;62.20;;;;;;5081939;28;20421;-67
2022/04/17 05:26:03;;;;;;;14.60;9.70;;;9.70;62.50;;;;;;5049146;28;20909;-67
2022/04/17 05:28:29;;;;;;;16.67;9.68;;;9.70;62.80;;;;;;5082742;28;20409;-66
2022/04/17 05:30:55;;;;;;;13.98;9.40;;;9.70;62.70;;;;;;5088996;28;20398;-66
2022/04/17 05:33:22;;;;;;;15.38;9.88;;;9.70;62.80;;;;;;5081155;28;20865;-66
2022/04/17 05:35:48;;;;;;;12.57;9.43;;;9.70;63.00;;;;;;5088533;28;20731;-66
2022/04/17 05:38:14;;;;;;;14.87;9.57;;;9.70;62.90;;;;;;5085588;28;20418;-67
2022/04/17 05:40:53;;;;;;;12.93;9.25;;;9.70;62.80;;;;;;5088000;28;20421;-66
2022/04/17 05:43:20;;;;;;;15.33;9.73;;;9.80;62.90;;;;;;5067606;28;20426;-67
2022/04/17 05:45:48;;;;;;;14.25;9.60;;;9.70;63.00;;;;;;5086329;28;20428;-67
2022/04/17 05:48:14;;;;;;;13.52;9.60;;;9.80;63.00;;;;;;5085040;28;20445;-64
2022/04/17 05:50:41;;;;;;;13.88;9.60;;;9.80;63.00;;;;;;5085375;28;20446;-67
2022/04/17 05:53:07;;;;;;;16.73;10.32;;;9.80;62.90;;;;;;5085339;28;20413;-66
2022/04/17 05:55:35;;;;;;;14.80;9.83;;;9.90;63.10;;;;;;5085963;28;20414;-66
2022/04/17 05:58:00;;;;;;;16.13;9.68;;;9.90;62.50;;;;;;5081686;28;20455;-66
2022/04/17 06:00:27;;;;;;;14.67;9.33;;;9.90;62.30;;;;;;5087674;28;20823;-67
2022/04/17 06:02:53;;;;;;;13.10;9.00;;;9.90;61.30;;;;;;5085830;28;20402;-67
2022/04/17 06:05:19;;;;;;;12.43;8.88;;;9.90;60.90;;;;;;5087995;28;20421;-66
2022/04/17 06:07:45;;;;;;;12.23;9.00;;;9.90;60.20;;;;;;5067223;28;20402;-66
2022/04/17 06:10:12;;;;;;;13.63;8.80;;;9.90;60.60;;;;;;5099090;28;20420;-66
2022/04/17 06:12:38;;;;;;;12.55;8.70;;;10.00;60.30;;;;;;5088315;28;20457;-67
2022/04/17 06:15:06;;;;;;;12.40;8.55;;;10.00;60.30;;;;;;5086685;28;20466;-68
2022/04/17 06:17:38;;;;;;;12.18;8.43;;;10.00;60.00;;;;;;5086806;28;20401;-65
2022/04/17 06:20:09;;;;;;;13.65;8.60;;;10.00;59.80;;;;;;5085649;28;20981;-67
2022/04/17 06:22:36;;;;;;;12.40;8.33;;;10.00;59.70;;;;;;5086235;28;20413;-66
2022/04/17 06:25:07;;;;;;;13.87;8.40;;;10.10;59.70;;;;;;5082082;28;20496;-66
2022/04/17 06:27:36;;;;;;;15.48;8.60;;;10.10;60.60;;;;;;5087486;28;20409;-66
2022/04/17 06:30:07;;;;;;;12.57;8.65;;;10.20;60.30;;;;;;5062825;28;20501;-66
2022/04/17 06:32:33;;;;;;;13.25;8.90;;;10.20;60.50;;;;;;5086858;28;20410;-68
2022/04/17 06:34:59;;;;;;;14.35;8.57;;;10.30;60.20;;;;;;5085447;28;20448;-67
2022/04/17 06:37:25;;;;;;;13.50;8.15;;;10.30;59.60;;;;;;5086812;28;20414;-67
2022/04/17 06:39:50;;;;;;;11.10;8.00;;;10.30;59.70;;;;;;5080699;28;20423;-66
2022/04/17 06:42:16;;;;;;;13.23;8.07;;;10.40;59.70;;;;;;5086549;28;20420;-65
2022/04/17 06:44:41;;;;;;;10.07;7.32;;;10.40;59.40;;;;;;5084718;28;20503;-66
2022/04/17 06:47:07;;;;;;;11.70;7.30;;;10.50;58.50;;;;;;5085189;28;20425;-66
2022/04/17 06:49:32;;;;;;;12.57;7.40;;;10.50;57.90;;;;;;5066319;28;20440;-66
2022/04/17 06:51:58;;;;;;;11.18;7.70;;;10.50;59.20;;;;;;5082257;28;20952;-67
2022/04/17 06:54:24;;;;;;;9.17;7.10;;;10.60;58.50;;;;;;5066584;28;20495;-65
2022/04/17 06:56:49;;;;;;;12.88;7.45;;;10.60;57.40;;;;;;5083755;28;20398;-66
2022/04/17 06:59:15;;;;;;;10.85;7.28;;;10.70;57.40;;;;;;5081316;28;20437;-67
2022/04/17 07:01:43;;;;;;;12.67;7.03;;;10.70;56.90;;;;;;5067620;28;20501;-66
2022/04/17 07:04:08;;;;;;;9.98;7.00;;;10.80;56.80;;;;;;5065488;28;20428;-66
2022/04/17 07:06:34;;;;;;;9.80;6.67;;;10.80;56.60;;;;;;5086513;28;20393;-67
2022/04/17 07:09:00;;;;;;;9.88;6.60;;;10.80;56.60;;;;;;5067608;28;20417;-67
2022/04/17 07:11:27;;;;;;;11.97;6.73;;;10.90;56.70;;;;;;5087495;28;20402;-65
2022/04/17 07:13:52;;;;;;;9.15;6.93;;;11.00;56.60;;;;;;5087947;28;20394;-66
2022/04/17 07:16:18;;;;;;;10.37;7.10;;;11.00;56.20;;;;;;5089040;28;20651;-67
2022/04/17 07:18:44;;;;;;;11.32;7.13;;;11.10;56.50;;;;;;5085802;28;20409;-66
2022/04/17 07:21:10;;;;;;;9.47;6.50;;;11.10;56.60;;;;;;5087741;28;20406;-67
2022/04/17 07:23:35;;;;;;;9.43;6.35;;;11.20;56.70;;;;;;5093536;28;20487;-66
2022/04/17 07:26:01;;;;;;;9.27;6.25;;;11.20;55.60;;;;;;5089670;28;20968;-67
2022/04/17 07:28:27;;;;;;;11.20;6.60;;;11.30;55.90;;;;;;5072657;28;20705;-66
2022/04/17 07:30:53;;;;;;;12.32;6.55;;;11.30;56.10;;;;;;5088245;28;20494;-66
2022/04/17 07:33:19;;;;;;;12.47;6.33;;;11.40;56.30;;;;;;5087112;28;20471;-66
2022/04/17 07:35:45;;;;;;;12.05;6.78;;;11.40;55.30;;;;;;5085310;28;20428;-65
2022/04/17 07:38:14;;;;;;;10.60;7.15;;;11.50;55.60;;;;;;5091391;28;20890;-66
2022/04/17 07:40:39;;;;;;;9.27;6.93;;;11.60;56.40;;;;;;5096841;28;20504;-66
2022/04/17 07:43:06;;;;;;;13.02;7.07;;;11.60;55.40;;;;;;5071964;28;20902;-65
2022/04/17 07:45:33;;;;;;;9.52;6.82;;;11.60;56.60;;;;;;5096771;28;20421;-66
2022/04/17 07:47:59;;;;;;;9.43;6.70;;;11.70;56.00;;;;;;5057484;28;20424;-65
2022/04/17 07:50:27;;;;;;;9.20;6.87;;;11.70;55.20;;;;;;5087455;28;20890;-66
2022/04/17 07:52:54;;;;;;;10.00;6.33;;;11.80;55.40;;;;;;5074571;28;20394;-66
2022/04/17 07:55:20;;;;;;;9.27;6.60;;;11.90;55.70;;;;;;5058159;28;20415;-66
2022/04/17 07:57:56;;;;;;;10.93;6.78;;;12.00;55.40;;;;;;5098410;28;20396;-67
2022/04/17 08:00:27;;;;;;;9.13;6.47;;;12.10;54.90;;;;;;5100506;28;20740;-66
2022/04/17 08:05:44;;;;;;;9.57;6.80;;;12.20;55.40;;;;;;5046661;28;20538;-66
2022/04/17 08:08:10;;;;;;;10.38;7.07;;;12.30;55.70;;;;;;5093181;28;20404;-64
2022/04/17 08:10:37;;;;;;;9.70;6.80;;;12.40;56.70;;;;;;5087686;28;20876;-68
2022/04/17 08:13:03;;;;;;;9.88;6.47;;;12.50;57.30;;;;;;5091140;28;20398;-65
2022/04/17 08:15:29;;;;;;;10.93;6.40;;;12.60;54.70;;;;;;5092441;28;20404;-64
2022/04/17 08:17:55;;;;;;;9.77;6.90;;;12.70;55.00;;;;;;5099152;28;20398;-64
2022/04/17 08:20:20;;;;;;;11.13;6.90;;;12.80;55.00;;;;;;5087812;28;20410;-64
2022/04/17 08:22:46;;;;;;;10.77;6.10;;;12.90;54.80;;;;;;5085898;28;20406;-65
2022/04/17 08:25:13;;;;;;;10.45;6.82;;;13.10;55.00;;;;;;5088244;28;20483;-64
2022/04/17 08:27:52;;;;;;;8.60;6.68;;;13.50;54.20;;;;;;5086118;28;20409;-66
2022/04/17 08:30:23;;;;;;;8.65;5.75;;;14.20;53.20;;;;;;5085690;28;20428;-66
2022/04/17 08:32:49;;;;;;;9.13;5.80;;;15.30;49.30;;;;;;5088725;28;20906;-66
2022/04/17 08:35:15;;;;;;;10.02;5.95;;;16.60;44.70;;;;;;5087749;28;20447;-66
2022/04/17 08:37:40;;;;;;;;;;;18.10;41.90;;;;;;5067075;28;20882;-66
2022/04/17 08:40:06;;;;;;;;;;;19.50;39.40;;;;;;5089363;28;19934;-65
2022/04/17 08:42:32;;;;;;;;;;;21.00;37.10;;;;;;5102873;28;20388;-65
2022/04/17 08:44:58;;;;;;;;;;;22.30;33.90;;;;;;5089472;28;19911;-66
2022/04/17 08:47:25;;;;;;;;;;;23.40;31.40;;;;;;5088684;28;19908;-66
2022/04/17 08:49:52;;;;;;;;;;;24.20;30.00;;;;;;5069735;28;20277;-66
2022/04/17 08:52:18;;;;;;;;;;;24.90;29.30;;;;;;5088127;28;19914;-66
2022/04/17 08:54:44;;;;;;;;;;;25.70;28.10;;;;;;5091457;28;19912;-67
2022/04/17 08:57:11;;;;;;;;;;;26.70;27.10;;;;;;5096861;28;19918;-67
2022/04/17 08:59:36;;;;;;;;;;;27.90;25.90;;;;;;5089728;28;19920;-67
2022/04/17 09:02:06;;;;;;;;;;;29.20;24.30;;;;;;5094170;28;19942;-67
2022/04/17 09:04:32;;;;;;;;;;;30.30;22.80;;;;;;5090827;28;20597;-67
2022/04/17 09:06:58;;;;;;;;;;;31.30;22.50;;;;;;5071568;28;20416;-67
2022/04/17 09:09:24;;;;;;;;;;;32.30;21.90;;;;;;5087379;28;19990;-67
2022/04/17 09:11:53;;;;;;;;;;;33.00;21.40;;;;;;5089994;28;19994;-71
2022/04/17 09:14:19;;;;;;;;;;;33.00;21.10;;;;;;5088901;28;19990;-69
2022/04/17 09:16:49;;;;;;;;;;;30.80;23.30;;;;;;5071015;28;19912;-68
2022/04/17 09:19:15;;;;;;;;;;;28.90;24.80;;;;;;5091427;28;19911;-67
2022/04/17 09:21:41;;;;;;;;;;;27.40;26.80;;;;;;5090269;28;19915;-68
2022/04/17 09:24:14;;;;;;;;;;;26.40;28.10;;;;;;5070137;28;19923;-68
2022/04/17 09:26:46;;;;;;;;;;;25.80;29.10;;;;;;5088095;28;20009;-67
2022/04/17 09:29:21;;;;;;;;;;;25.50;30.10;;;;;;5086743;28;20368;-73
2022/04/17 09:31:47;;;;;;;;;;;28.00;25.50;;;;;;5099417;28;20379;-73
2022/04/17 09:34:13;;;;;;;;;;;27.50;26.80;;;;;;5069395;28;19915;-72
2022/04/17 09:36:39;;;;;;;;;;;27.10;27.80;;;;;;5090926;28;19919;-73
2022/04/17 09:39:11;;;;;;;;;;;27.00;28.80;;;;;;5091191;28;19907;-72
2022/04/17 09:41:50;;;;;;;;;;;27.00;29.20;;;;;;5084944;28;19951;-72
2022/04/17 09:44:32;;;;;;;;;;;27.20;29.20;;;;;;5085434;28;19959;-71
2022/04/17 09:46:58;;;;;;;;;;;26.80;30.00;;;;;;5086046;28;20394;-68
2022/04/17 09:49:24;;;;;;;;;;;26.10;30.60;;;;;;5069083;28;19915;-68
2022/04/17 09:52:04;;;;;;;;;;;25.30;30.60;;;;;;5089443;28;19915;-68
2022/04/17 09:54:30;;;;;;;;;;;24.60;32.00;;;;;;5069614;28;20045;-67
2022/04/17 09:56:56;;;;;;;;;;;23.90;32.90;;;;;;5072537;28;20573;-68
2022/04/17 09:59:23;;;;;;;;;;;23.40;33.60;;;;;;5096166;28;19959;-69
2022/04/17 10:01:50;;;;;;;;;;;22.90;33.90;;;;;;5084620;28;19908;-67
2022/04/17 10:04:18;;;;;;;;;;;22.60;34.20;;;;;;5087244;28;20330;-68
2022/04/17 10:06:45;;;;;;;;;;;22.20;34.20;;;;;;5092703;28;20284;-68
2022/04/17 10:09:11;;;;;;;;;;;21.90;34.40;;;;;;5071305;28;19912;-68
2022/04/17 10:11:37;;;;;;;;;;;21.60;34.40;;;;;;5089096;28;20566;-68
2022/04/17 10:14:04;;;;;;;;;;;21.40;34.80;;;;;;5084516;28;19905;-68
2022/04/17 10:16:31;;;;;;;;;;;21.10;34.50;;;;;;5072782;28;20356;-70
2022/04/17 10:18:58;;;;;;;;;;;21.00;34.80;;;;;;5088922;28;20505;-71
2022/04/17 10:21:25;;;;;;;;;;;20.90;34.80;;;;;;5087783;28;19916;-73
2022/04/17 10:23:54;;;;;;;;;;;20.80;34.90;;;;;;5101241;28;19920;-69
2022/04/17 10:26:20;;;;;;;;;;;20.60;35.30;;;;;;5088676;28;20010;-66
2022/04/17 10:28:50;;;;;;;;;;;20.60;35.50;;;;;;5086816;28;19954;-68
2022/04/17 10:31:17;;;;;;;;;;;20.60;35.60;;;;;;5069116;28;19916;-70
2022/04/17 10:33:54;;;;;;;;;;;20.60;35.10;;;;;;5077376;28;19911;-70
2022/04/17 10:36:39;;;;;;;;;;;20.50;35.00;;;;;;5090688;28;19999;-67
2022/04/17 10:39:13;;;;;;;;;;;20.50;34.70;;;;;;5085997;28;19916;-69
2022/04/17 10:41:39;;;;;;;;;;;20.40;35.20;;;;;;5069765;28;19915;-71
2022/04/17 10:44:05;;;;;;;;;;;20.40;35.40;;;;;;5093409;28;19957;-71
2022/04/17 10:46:44;;;;;;;;;;;20.40;35.00;;;;;;5086796;28;19924;-73
2022/04/17 10:49:09;;;;;;;;;;;20.50;35.50;;;;;;5087541;28;19919;-72
2022/04/17 10:51:35;;;;;;;;;;;20.50;35.90;;;;;;5078857;28;20314;-71
2022/04/17 10:54:04;;;;;;;;;;;20.60;35.70;;;;;;5076564;28;19912;-69
2022/04/17 10:56:32;;;;;;;;;;;20.70;35.50;;;;;;5074156;28;19919;-70
2022/04/17 10:59:00;;;;;;;;;;;20.80;35.20;;;;;;5089116;28;19916;-73
2022/04/17 11:01:41;;;;;;;;;;;20.90;34.90;;;;;;5079838;28;19915;-68
2022/04/17 11:04:17;;;;;;;;;;;21.00;34.70;;;;;;5088413;28;19920;-68
2022/04/17 11:06:43;;;;;;;;;;;21.00;34.70;;;;;;5089469;28;20308;-69
2022/04/17 11:09:15;;;;;;;14.02;7.25;;;21.20;34.80;;;;;;5093890;28;20203;-68
2022/04/17 11:11:45;;;;;;;10.95;6.50;;;21.30;34.10;;;;;;5090548;28;20402;-73
2022/04/17 11:14:26;;;;;;;8.20;4.70;;;22.00;33.40;;;;;;5069187;28;20182;-71
2022/04/17 11:17:00;;;;;;;6.40;4.78;;;21.80;33.20;;;;;;5089101;28;20182;-71
2022/04/17 11:19:31;;;;;;;7.10;5.10;;;21.70;33.40;;;;;;5088939;28;20244;-63
2022/04/17 11:22:02;;;;;;;5.10;3.97;;;21.60;33.10;;;;;;5092774;28;20641;-70
2022/04/17 11:24:48;;;;;;;7.43;3.70;;;21.60;33.60;;;;;;5091679;28;20716;-68
2022/04/17 11:27:14;;;;;;;9.00;4.22;;;21.60;32.80;;;;;;5055551;28;20646;-70
2022/04/17 11:29:48;;;;;;;7.70;3.90;;;21.60;32.30;;;;;;5092479;28;20206;-68
2022/04/17 11:32:17;;;;;;;6.97;3.95;;;21.50;32.60;;;;;;5072774;28;20189;-69
2022/04/17 11:34:53;;;;;;;7.30;4.28;;;21.50;32.30;;;;;;5074896;28;20197;-68
2022/04/17 11:37:23;;;;;;;6.28;3.90;;;21.50;32.20;;;;;;5088844;28;20196;-67
2022/04/17 11:39:50;;;;;;;5.85;3.78;;;21.60;31.70;;;;;;5091425;28;20271;-68
2022/04/17 11:42:16;;;;;;;5.55;3.95;;;21.60;31.50;;;;;;5072272;28;20189;-71
2022/04/17 11:44:44;;;;;;;6.97;4.03;;;21.60;31.40;;;;;;5072182;28;20224;-69
2022/04/17 11:47:17;;;;;;;9.85;6.18;;;21.70;31.60;;;;;;5054112;28;20174;-67
2022/04/17 11:49:46;;;;;;;5.50;3.72;;;21.70;31.60;;;;;;5074590;28;20182;-67
2022/04/17 11:52:13;;;;;;;4.80;3.70;;;21.80;31.50;;;;;;5088699;28;20516;-71
2022/04/17 11:54:39;;;;;;;6.72;4.20;;;22.20;28.70;;;;;;5067882;28;20906;-70
2022/04/17 11:57:06;;;;;;;6.13;4.05;;;22.40;29.80;;;;;;5083901;28;20479;-67
2022/04/17 11:59:49;;;;;;;5.05;3.97;;;22.60;29.80;;;;;;5075921;28;20410;-67
2022/04/17 12:02:18;;;;;;;6.63;3.95;;;22.80;29.00;;;;;;5085740;28;20440;-68
2022/04/17 12:04:51;;;;;;;7.00;4.20;;;23.00;28.60;;;;;;5090100;28;20418;-66
2022/04/17 12:07:25;;;;;;;7.18;4.10;;;23.10;28.10;;;;;;5096523;28;20406;-66
2022/04/17 12:10:09;;;;;;;5.03;4.00;;;23.10;29.20;;;;;;5077950;28;20394;-66
2022/04/17 12:12:43;;;;;;;8.50;4.68;;;23.20;28.60;;;;;;5071929;28;20394;-67
2022/04/17 12:15:11;;;;;;;6.25;4.50;;;23.30;28.50;;;;;;5088398;28;21192;-69
2022/04/17 12:17:38;;;;;;;7.78;4.85;;;23.30;28.20;;;;;;5091969;28;20539;-70
2022/04/17 12:20:15;;;;;;;6.40;4.50;;;23.30;28.90;;;;;;5094743;28;20401;-70
2022/04/17 12:22:42;;;;;;;5.68;4.32;;;23.40;29.40;;;;;;5070866;28;20501;-72
2022/04/17 12:25:20;;;;;;;6.33;4.40;;;23.50;27.90;;;;;;5076471;28;20450;-68
2022/04/17 12:27:47;;;;;;;5.55;4.18;;;23.60;28.20;;;;;;5069616;28;20426;-69
2022/04/17 12:30:13;;;;;;;5.57;4.13;;;23.70;28.00;;;;;;5076380;28;20421;-70
2022/04/17 12:32:46;;;;;;;8.63;4.43;;;23.70;27.30;;;;;;5074550;28;21209;-69
2022/04/17 12:35:20;;;;;;;6.30;4.15;;;23.80;28.40;;;;;;5048805;28;20423;-70
2022/04/17 12:37:46;;;;;;;5.78;4.38;;;23.90;28.50;;;;;;5067535;28;20400;-70
2022/04/17 12:40:13;;;;;;;5.28;4.20;;;24.30;28.60;;;;;;5066186;28;20412;-69
2022/04/17 12:42:40;;;;;;;6.93;4.82;;;24.80;27.40;;;;;;5072458;28;20395;-69
2022/04/17 12:45:07;;;;;;;5.80;4.32;;;25.20;25.70;;;;;;5048031;28;20948;-70
2022/04/17 12:47:36;;;;;;;7.22;4.20;;;25.40;26.80;;;;;;5069006;28;20406;-69
2022/04/17 12:50:11;;;;;;;6.10;4.15;;;25.80;26.40;;;;;;5066871;28;20486;-69
2022/04/17 12:52:37;;;;;;;5.63;4.55;;;26.10;26.50;;;;;;5068325;28;20523;-70
2022/04/17 12:55:10;;;;;;;6.53;4.50;;;26.50;26.50;;;;;;5065342;28;20627;-70
2022/04/17 12:57:37;;;;;;;6.45;4.82;;;26.80;26.70;;;;;;5063263;28;20443;-69
2022/04/17 13:00:15;;;;;;;5.47;4.00;;;27.00;25.90;;;;;;5067138;28;20426;-71
2022/04/17 13:02:42;;;;;;;4.72;3.72;;;27.20;24.70;;;;;;5065939;28;20439;-71
2022/04/17 13:05:08;;;;;;;5.17;4.37;;;27.50;24.30;;;;;;5061899;28;20407;-69
2022/04/17 13:07:35;;;;;;;7.32;4.22;;;27.70;24.90;;;;;;5098006;28;20430;-71
2022/04/17 13:10:06;;;;;;;5.30;3.90;;;28.00;24.00;;;;;;5063518;28;20404;-69
2022/04/17 13:12:45;;;;;;;6.25;4.30;;;28.30;24.40;;;;;;5047855;28;20803;-68
2022/04/17 13:15:13;;;;;;;6.33;4.13;;;28.40;23.70;;;;;;5066034;28;20832;-70
2022/04/17 13:17:50;;;;;;;6.10;3.93;;;28.40;24.40;;;;;;5067037;28;20415;-71